sensor_id;sensor_type;location;lat;lon;timestamp;P1;durP1;ratioP1;P2;durP2;ratioP2
62353;SDS011;48391;49.184;2.418;2023-05-24T00:00:41;0.70;;;0.32;;
62353;SDS011;48391;49.184;2.418;2023-05-24T00:03:07;2.75;;;0.85;;
62353;SDS011;48391;49.184;2.418;2023-05-24T00:05:33;2.35;;;1.02;;
62353;SDS011;48391;49.184;2.418;2023-05-24T00:08:05;1.33;;;0.80;;
62353;SDS011;48391;49.184;2.418;2023-05-24T00:10:31;1.73;;;0.70;;
62353;SDS011;48391;49.184;2.418;2023-05-24T00:12:57;1.55;;;0.70;;
62353;SDS011;48391;49.184;2.418;2023-05-24T00:15:23;2.58;;;0.70;;
62353;SDS011;48391;49.184;2.418;2023-05-24T00:17:49;2.88;;;1.02;;
62353;SDS011;48391;49.184;2.418;2023-05-24T00:20:15;1.58;;;0.57;;
62353;SDS011;48391;49.184;2.418;2023-05-24T00:22:44;2.00;;;0.93;;
62353;SDS011;48391;49.184;2.418;2023-05-24T00:25:11;1.17;;;0.40;;
62353;SDS011;48391;49.184;2.418;2023-05-24T00:27:37;0.40;;;0.40;;
62353;SDS011;48391;49.184;2.418;2023-05-24T00:30:04;0.85;;;0.22;;
62353;SDS011;48391;49.184;2.418;2023-05-24T00:32:30;2.78;;;0.73;;
62353;SDS011;48391;49.184;2.418;2023-05-24T00:34:56;2.13;;;0.77;;
62353;SDS011;48391;49.184;2.418;2023-05-24T00:37:22;1.52;;;0.80;;
62353;SDS011;48391;49.184;2.418;2023-05-24T00:39:48;0.70;;;0.32;;
62353;SDS011;48391;49.184;2.418;2023-05-24T00:42:14;0.43;;;0.30;;
62353;SDS011;48391;49.184;2.418;2023-05-24T00:44:40;1.13;;;0.30;;
62353;SDS011;48391;49.184;2.418;2023-05-24T00:47:06;2.20;;;0.85;;
62353;SDS011;48391;49.184;2.418;2023-05-24T00:49:32;1.13;;;0.20;;
62353;SDS011;48391;49.184;2.418;2023-05-24T00:51:59;0.77;;;0.38;;
62353;SDS011;48391;49.184;2.418;2023-05-24T00:54:25;1.42;;;0.20;;
62353;SDS011;48391;49.184;2.418;2023-05-24T00:56:51;0.82;;;0.45;;
62353;SDS011;48391;49.184;2.418;2023-05-24T00:59:18;1.85;;;0.40;;
62353;SDS011;48391;49.184;2.418;2023-05-24T01:01:44;1.88;;;0.75;;
62353;SDS011;48391;49.184;2.418;2023-05-24T01:04:11;0.73;;;0.43;;
62353;SDS011;48391;49.184;2.418;2023-05-24T01:06:40;1.52;;;0.45;;
62353;SDS011;48391;49.184;2.418;2023-05-24T01:14:40;4.00;;;0.93;;
62353;SDS011;48391;49.184;2.418;2023-05-24T01:17:22;2.20;;;0.70;;
62353;SDS011;48391;49.184;2.418;2023-05-24T01:19:57;0.63;;;0.28;;
62353;SDS011;48391;49.184;2.418;2023-05-24T01:27:50;1.23;;;0.73;;
62353;SDS011;48391;49.184;2.418;2023-05-24T01:30:16;2.28;;;0.60;;
62353;SDS011;48391;49.184;2.418;2023-05-24T01:32:42;3.53;;;0.65;;
62353;SDS011;48391;49.184;2.418;2023-05-24T01:35:08;1.65;;;0.70;;
62353;SDS011;48391;49.184;2.418;2023-05-24T01:37:35;1.98;;;0.68;;
62353;SDS011;48391;49.184;2.418;2023-05-24T01:40:01;2.85;;;1.13;;
62353;SDS011;48391;49.184;2.418;2023-05-24T01:42:34;3.00;;;1.17;;
62353;SDS011;48391;49.184;2.418;2023-05-24T01:45:13;4.63;;;1.30;;
62353;SDS011;48391;49.184;2.418;2023-05-24T01:47:47;5.90;;;1.95;;
62353;SDS011;48391;49.184;2.418;2023-05-24T01:50:17;5.00;;;1.40;;
62353;SDS011;48391;49.184;2.418;2023-05-24T01:52:44;3.38;;;1.45;;
62353;SDS011;48391;49.184;2.418;2023-05-24T01:55:12;4.93;;;1.38;;
62353;SDS011;48391;49.184;2.418;2023-05-24T01:57:40;4.10;;;1.20;;
62353;SDS011;48391;49.184;2.418;2023-05-24T02:00:07;4.43;;;1.05;;
62353;SDS011;48391;49.184;2.418;2023-05-24T02:02:34;2.42;;;1.30;;
62353;SDS011;48391;49.184;2.418;2023-05-24T02:05:00;1.83;;;1.33;;
62353;SDS011;48391;49.184;2.418;2023-05-24T02:10:02;2.67;;;0.82;;
62353;SDS011;48391;49.184;2.418;2023-05-24T02:12:29;8.40;;;0.98;;
62353;SDS011;48391;49.184;2.418;2023-05-24T02:14:55;2.58;;;0.75;;
62353;SDS011;48391;49.184;2.418;2023-05-24T02:17:21;1.65;;;0.47;;
62353;SDS011;48391;49.184;2.418;2023-05-24T02:19:49;1.95;;;0.80;;
62353;SDS011;48391;49.184;2.418;2023-05-24T02:22:15;4.95;;;1.33;;
62353;SDS011;48391;49.184;2.418;2023-05-24T02:24:41;3.33;;;1.17;;
62353;SDS011;48391;49.184;2.418;2023-05-24T02:27:07;2.90;;;1.00;;
62353;SDS011;48391;49.184;2.418;2023-05-24T02:29:33;4.53;;;1.70;;
62353;SDS011;48391;49.184;2.418;2023-05-24T02:31:59;4.97;;;1.52;;
62353;SDS011;48391;49.184;2.418;2023-05-24T02:34:25;2.78;;;1.55;;
62353;SDS011;48391;49.184;2.418;2023-05-24T02:36:51;3.47;;;0.88;;
62353;SDS011;48391;49.184;2.418;2023-05-24T02:39:18;4.03;;;1.27;;
62353;SDS011;48391;49.184;2.418;2023-05-24T02:41:44;3.30;;;1.27;;
62353;SDS011;48391;49.184;2.418;2023-05-24T02:44:10;2.25;;;0.70;;
62353;SDS011;48391;49.184;2.418;2023-05-24T02:46:36;1.85;;;0.70;;
62353;SDS011;48391;49.184;2.418;2023-05-24T02:49:02;3.97;;;1.17;;
62353;SDS011;48391;49.184;2.418;2023-05-24T02:51:32;2.88;;;1.02;;
62353;SDS011;48391;49.184;2.418;2023-05-24T02:53:58;1.83;;;0.70;;
62353;SDS011;48391;49.184;2.418;2023-05-24T02:56:25;1.75;;;0.65;;
62353;SDS011;48391;49.184;2.418;2023-05-24T02:58:51;1.25;;;1.13;;
62353;SDS011;48391;49.184;2.418;2023-05-24T03:01:18;1.77;;;0.90;;
62353;SDS011;48391;49.184;2.418;2023-05-24T03:03:45;3.17;;;0.88;;
62353;SDS011;48391;49.184;2.418;2023-05-24T03:06:11;1.30;;;0.60;;
62353;SDS011;48391;49.184;2.418;2023-05-24T03:08:40;5.35;;;0.98;;
62353;SDS011;48391;49.184;2.418;2023-05-24T03:11:06;2.67;;;1.48;;
62353;SDS011;48391;49.184;2.418;2023-05-24T03:13:32;3.45;;;1.20;;
62353;SDS011;48391;49.184;2.418;2023-05-24T03:15:59;4.60;;;2.10;;
62353;SDS011;48391;49.184;2.418;2023-05-24T03:18:25;6.22;;;1.42;;
62353;SDS011;48391;49.184;2.418;2023-05-24T03:20:51;4.78;;;2.17;;
62353;SDS011;48391;49.184;2.418;2023-05-24T03:23:17;13.25;;;3.75;;
62353;SDS011;48391;49.184;2.418;2023-05-24T03:25:43;4.25;;;0.60;;
62353;SDS011;48391;49.184;2.418;2023-05-24T03:28:09;2.67;;;1.15;;
62353;SDS011;48391;49.184;2.418;2023-05-24T03:30:38;2.88;;;0.88;;
62353;SDS011;48391;49.184;2.418;2023-05-24T03:33:04;3.67;;;1.10;;
62353;SDS011;48391;49.184;2.418;2023-05-24T03:35:30;2.70;;;0.90;;
62353;SDS011;48391;49.184;2.418;2023-05-24T03:37:56;0.82;;;0.60;;
62353;SDS011;48391;49.184;2.418;2023-05-24T03:40:22;0.82;;;0.38;;
62353;SDS011;48391;49.184;2.418;2023-05-24T03:42:49;1.00;;;0.50;;
62353;SDS011;48391;49.184;2.418;2023-05-24T03:45:15;1.20;;;0.43;;
62353;SDS011;48391;49.184;2.418;2023-05-24T03:47:41;1.63;;;0.85;;
62353;SDS011;48391;49.184;2.418;2023-05-24T03:50:08;1.75;;;0.43;;
62353;SDS011;48391;49.184;2.418;2023-05-24T03:52:34;0.20;;;0.10;;
62353;SDS011;48391;49.184;2.418;2023-05-24T03:55:00;0.80;;;0.20;;
62353;SDS011;48391;49.184;2.418;2023-05-24T03:57:26;0.43;;;0.25;;
62353;SDS011;48391;49.184;2.418;2023-05-24T03:59:52;1.70;;;0.40;;
62353;SDS011;48391;49.184;2.418;2023-05-24T04:02:18;0.77;;;0.50;;
62353;SDS011;48391;49.184;2.418;2023-05-24T04:04:44;2.20;;;0.63;;
62353;SDS011;48391;49.184;2.418;2023-05-24T04:07:10;1.38;;;0.50;;
62353;SDS011;48391;49.184;2.418;2023-05-24T04:09:37;0.98;;;0.22;;
62353;SDS011;48391;49.184;2.418;2023-05-24T04:12:04;1.08;;;0.50;;
62353;SDS011;48391;49.184;2.418;2023-05-24T04:14:30;2.60;;;0.40;;
62353;SDS011;48391;49.184;2.418;2023-05-24T04:16:56;4.07;;;1.00;;
62353;SDS011;48391;49.184;2.418;2023-05-24T04:19:22;1.38;;;0.70;;
62353;SDS011;48391;49.184;2.418;2023-05-24T04:21:49;4.95;;;0.80;;
62353;SDS011;48391;49.184;2.418;2023-05-24T04:24:15;2.10;;;1.27;;
62353;SDS011;48391;49.184;2.418;2023-05-24T04:26:41;2.30;;;0.55;;
62353;SDS011;48391;49.184;2.418;2023-05-24T04:29:07;3.50;;;1.00;;
62353;SDS011;48391;49.184;2.418;2023-05-24T04:31:34;4.07;;;0.80;;
62353;SDS011;48391;49.184;2.418;2023-05-24T04:34:00;2.42;;;0.68;;
62353;SDS011;48391;49.184;2.418;2023-05-24T04:36:26;3.83;;;1.13;;
62353;SDS011;48391;49.184;2.418;2023-05-24T04:38:55;0.60;;;0.60;;
62353;SDS011;48391;49.184;2.418;2023-05-24T04:41:26;3.00;;;0.95;;
62353;SDS011;48391;49.184;2.418;2023-05-24T04:43:55;4.70;;;1.10;;
62353;SDS011;48391;49.184;2.418;2023-05-24T04:46:23;1.40;;;0.90;;
62353;SDS011;48391;49.184;2.418;2023-05-24T04:48:50;1.85;;;0.50;;
62353;SDS011;48391;49.184;2.418;2023-05-24T04:51:16;1.67;;;0.70;;
62353;SDS011;48391;49.184;2.418;2023-05-24T04:53:42;0.88;;;0.60;;
62353;SDS011;48391;49.184;2.418;2023-05-24T04:56:08;0.63;;;0.45;;
62353;SDS011;48391;49.184;2.418;2023-05-24T04:58:34;3.25;;;1.13;;
62353;SDS011;48391;49.184;2.418;2023-05-24T05:01:00;3.50;;;1.58;;
62353;SDS011;48391;49.184;2.418;2023-05-24T05:03:26;2.72;;;0.52;;
62353;SDS011;48391;49.184;2.418;2023-05-24T05:05:52;0.47;;;0.30;;
62353;SDS011;48391;49.184;2.418;2023-05-24T05:08:18;1.52;;;1.02;;
62353;SDS011;48391;49.184;2.418;2023-05-24T05:10:45;1.08;;;0.40;;
62353;SDS011;48391;49.184;2.418;2023-05-24T05:13:12;1.42;;;0.52;;
62353;SDS011;48391;49.184;2.418;2023-05-24T05:15:38;0.50;;;0.25;;
62353;SDS011;48391;49.184;2.418;2023-05-24T05:18:04;2.25;;;0.45;;
62353;SDS011;48391;49.184;2.418;2023-05-24T05:20:30;1.45;;;0.30;;
62353;SDS011;48391;49.184;2.418;2023-05-24T05:22:56;2.65;;;0.45;;
62353;SDS011;48391;49.184;2.418;2023-05-24T05:25:22;0.85;;;0.65;;
62353;SDS011;48391;49.184;2.418;2023-05-24T05:27:48;8.18;;;2.78;;
62353;SDS011;48391;49.184;2.418;2023-05-24T05:30:14;4.43;;;1.60;;
62353;SDS011;48391;49.184;2.418;2023-05-24T05:32:40;3.00;;;1.30;;
62353;SDS011;48391;49.184;2.418;2023-05-24T05:35:06;4.15;;;1.42;;
62353;SDS011;48391;49.184;2.418;2023-05-24T05:37:32;2.45;;;1.60;;
62353;SDS011;48391;49.184;2.418;2023-05-24T05:39:58;4.40;;;1.63;;
62353;SDS011;48391;49.184;2.418;2023-05-24T05:42:24;4.85;;;2.15;;
62353;SDS011;48391;49.184;2.418;2023-05-24T05:44:50;4.97;;;2.17;;
62353;SDS011;48391;49.184;2.418;2023-05-24T05:47:16;8.82;;;2.92;;
62353;SDS011;48391;49.184;2.418;2023-05-24T05:49:42;6.65;;;2.15;;
62353;SDS011;48391;49.184;2.418;2023-05-24T05:52:08;5.55;;;2.08;;
62353;SDS011;48391;49.184;2.418;2023-05-24T05:54:35;2.15;;;1.10;;
62353;SDS011;48391;49.184;2.418;2023-05-24T05:57:01;3.35;;;1.75;;
62353;SDS011;48391;49.184;2.418;2023-05-24T05:59:27;6.03;;;1.92;;
62353;SDS011;48391;49.184;2.418;2023-05-24T06:01:53;2.90;;;1.33;;
62353;SDS011;48391;49.184;2.418;2023-05-24T06:04:19;3.72;;;2.03;;
62353;SDS011;48391;49.184;2.418;2023-05-24T06:06:45;5.70;;;2.33;;
62353;SDS011;48391;49.184;2.418;2023-05-24T06:09:15;4.00;;;1.77;;
62353;SDS011;48391;49.184;2.418;2023-05-24T06:11:41;2.10;;;1.65;;
62353;SDS011;48391;49.184;2.418;2023-05-24T06:14:09;6.18;;;2.42;;
62353;SDS011;48391;49.184;2.418;2023-05-24T06:16:36;5.18;;;1.98;;
62353;SDS011;48391;49.184;2.418;2023-05-24T06:19:06;4.13;;;1.97;;
62353;SDS011;48391;49.184;2.418;2023-05-24T06:21:32;3.72;;;2.30;;
62353;SDS011;48391;49.184;2.418;2023-05-24T06:24:00;4.15;;;2.53;;
62353;SDS011;48391;49.184;2.418;2023-05-24T06:26:26;12.40;;;3.53;;
62353;SDS011;48391;49.184;2.418;2023-05-24T06:28:52;4.93;;;1.80;;
62353;SDS011;48391;49.184;2.418;2023-05-24T06:31:19;7.72;;;2.67;;
62353;SDS011;48391;49.184;2.418;2023-05-24T06:33:45;5.53;;;1.73;;
62353;SDS011;48391;49.184;2.418;2023-05-24T06:36:11;5.65;;;2.58;;
62353;SDS011;48391;49.184;2.418;2023-05-24T06:38:37;6.25;;;1.83;;
62353;SDS011;48391;49.184;2.418;2023-05-24T06:41:03;3.38;;;1.55;;
62353;SDS011;48391;49.184;2.418;2023-05-24T06:43:29;6.20;;;2.55;;
62353;SDS011;48391;49.184;2.418;2023-05-24T06:45:55;7.68;;;1.70;;
62353;SDS011;48391;49.184;2.418;2023-05-24T06:48:23;5.70;;;1.73;;
62353;SDS011;48391;49.184;2.418;2023-05-24T06:50:50;6.78;;;1.50;;
62353;SDS011;48391;49.184;2.418;2023-05-24T06:53:16;5.97;;;2.25;;
62353;SDS011;48391;49.184;2.418;2023-05-24T06:55:42;4.45;;;1.30;;
62353;SDS011;48391;49.184;2.418;2023-05-24T06:58:08;2.33;;;1.52;;
62353;SDS011;48391;49.184;2.418;2023-05-24T07:00:38;4.80;;;1.45;;
62353;SDS011;48391;49.184;2.418;2023-05-24T07:03:05;7.45;;;2.40;;
62353;SDS011;48391;49.184;2.418;2023-05-24T07:05:31;5.25;;;1.50;;
62353;SDS011;48391;49.184;2.418;2023-05-24T07:07:57;8.27;;;2.80;;
62353;SDS011;48391;49.184;2.418;2023-05-24T07:10:23;6.75;;;3.03;;
62353;SDS011;48391;49.184;2.418;2023-05-24T07:12:49;7.97;;;2.30;;
62353;SDS011;48391;49.184;2.418;2023-05-24T07:15:15;6.07;;;2.20;;
62353;SDS011;48391;49.184;2.418;2023-05-24T07:17:41;3.25;;;1.48;;
62353;SDS011;48391;49.184;2.418;2023-05-24T07:20:07;4.63;;;1.65;;
62353;SDS011;48391;49.184;2.418;2023-05-24T07:22:38;7.10;;;1.50;;
62353;SDS011;48391;49.184;2.418;2023-05-24T07:25:04;8.95;;;2.70;;
62353;SDS011;48391;49.184;2.418;2023-05-24T07:27:30;7.45;;;1.35;;
62353;SDS011;48391;49.184;2.418;2023-05-24T07:29:56;3.42;;;1.33;;
62353;SDS011;48391;49.184;2.418;2023-05-24T07:32:22;4.45;;;1.77;;
62353;SDS011;48391;49.184;2.418;2023-05-24T07:34:48;6.47;;;2.63;;
62353;SDS011;48391;49.184;2.418;2023-05-24T07:37:15;4.50;;;1.73;;
62353;SDS011;48391;49.184;2.418;2023-05-24T07:39:42;4.35;;;1.55;;
62353;SDS011;48391;49.184;2.418;2023-05-24T07:42:08;5.05;;;1.65;;
62353;SDS011;48391;49.184;2.418;2023-05-24T07:44:34;4.68;;;2.47;;
62353;SDS011;48391;49.184;2.418;2023-05-24T07:47:01;9.05;;;2.47;;
62353;SDS011;48391;49.184;2.418;2023-05-24T07:49:27;3.15;;;1.52;;
62353;SDS011;48391;49.184;2.418;2023-05-24T07:51:53;9.38;;;1.98;;
62353;SDS011;48391;49.184;2.418;2023-05-24T07:54:22;6.25;;;2.20;;
62353;SDS011;48391;49.184;2.418;2023-05-24T07:56:48;3.63;;;1.27;;
62353;SDS011;48391;49.184;2.418;2023-05-24T07:59:14;1.80;;;0.80;;
62353;SDS011;48391;49.184;2.418;2023-05-24T08:01:40;2.83;;;1.05;;
62353;SDS011;48391;49.184;2.418;2023-05-24T08:04:06;5.47;;;2.10;;
62353;SDS011;48391;49.184;2.418;2023-05-24T08:06:34;8.00;;;1.60;;
62353;SDS011;48391;49.184;2.418;2023-05-24T08:09:02;6.40;;;1.95;;
62353;SDS011;48391;49.184;2.418;2023-05-24T08:11:31;3.28;;;1.60;;
62353;SDS011;48391;49.184;2.418;2023-05-24T08:13:57;4.82;;;2.00;;
62353;SDS011;48391;49.184;2.418;2023-05-24T08:16:26;6.38;;;1.38;;
62353;SDS011;48391;49.184;2.418;2023-05-24T08:18:52;3.70;;;1.48;;
62353;SDS011;48391;49.184;2.418;2023-05-24T08:21:18;5.03;;;1.50;;
62353;SDS011;48391;49.184;2.418;2023-05-24T08:23:44;7.63;;;2.05;;
62353;SDS011;48391;49.184;2.418;2023-05-24T08:26:10;4.40;;;1.00;;
62353;SDS011;48391;49.184;2.418;2023-05-24T08:28:36;3.95;;;1.35;;
62353;SDS011;48391;49.184;2.418;2023-05-24T08:31:02;4.20;;;0.95;;
62353;SDS011;48391;49.184;2.418;2023-05-24T08:33:31;4.18;;;0.98;;
62353;SDS011;48391;49.184;2.418;2023-05-24T08:35:57;2.97;;;1.10;;
62353;SDS011;48391;49.184;2.418;2023-05-24T08:38:26;3.47;;;1.08;;
62353;SDS011;48391;49.184;2.418;2023-05-24T08:40:53;3.45;;;1.58;;
62353;SDS011;48391;49.184;2.418;2023-05-24T08:43:19;2.63;;;1.58;;
62353;SDS011;48391;49.184;2.418;2023-05-24T08:45:46;2.72;;;0.90;;
62353;SDS011;48391;49.184;2.418;2023-05-24T08:48:13;4.22;;;1.35;;
62353;SDS011;48391;49.184;2.418;2023-05-24T08:50:39;4.40;;;1.60;;
62353;SDS011;48391;49.184;2.418;2023-05-24T08:53:06;6.20;;;1.70;;
62353;SDS011;48391;49.184;2.418;2023-05-24T08:55:33;3.95;;;1.70;;
62353;SDS011;48391;49.184;2.418;2023-05-24T08:58:00;5.28;;;1.75;;
62353;SDS011;48391;49.184;2.418;2023-05-24T09:00:26;2.72;;;1.40;;
62353;SDS011;48391;49.184;2.418;2023-05-24T09:02:52;3.53;;;1.63;;
62353;SDS011;48391;49.184;2.418;2023-05-24T09:05:18;2.67;;;1.23;;
62353;SDS011;48391;49.184;2.418;2023-05-24T09:07:46;3.03;;;1.65;;
62353;SDS011;48391;49.184;2.418;2023-05-24T09:10:12;3.30;;;1.00;;
62353;SDS011;48391;49.184;2.418;2023-05-24T09:12:39;4.38;;;1.15;;
62353;SDS011;48391;49.184;2.418;2023-05-24T09:17:35;2.75;;;1.33;;
62353;SDS011;48391;49.184;2.418;2023-05-24T09:20:02;3.20;;;0.88;;
62353;SDS011;48391;49.184;2.418;2023-05-24T09:22:31;3.05;;;0.70;;
62353;SDS011;48391;49.184;2.418;2023-05-24T09:25:00;6.20;;;1.45;;
62353;SDS011;48391;49.184;2.418;2023-05-24T09:27:26;3.22;;;1.10;;
62353;SDS011;48391;49.184;2.418;2023-05-24T09:29:54;2.65;;;1.10;;
62353;SDS011;48391;49.184;2.418;2023-05-24T09:32:20;2.00;;;0.57;;
62353;SDS011;48391;49.184;2.418;2023-05-24T09:34:49;3.53;;;0.95;;
62353;SDS011;48391;49.184;2.418;2023-05-24T09:37:16;5.03;;;2.00;;
62353;SDS011;48391;49.184;2.418;2023-05-24T09:39:43;2.63;;;0.80;;
62353;SDS011;48391;49.184;2.418;2023-05-24T09:42:19;3.90;;;0.88;;
62353;SDS011;48391;49.184;2.418;2023-05-24T09:44:48;3.72;;;1.52;;
62353;SDS011;48391;49.184;2.418;2023-05-24T09:47:21;3.10;;;1.40;;
62353;SDS011;48391;49.184;2.418;2023-05-24T09:49:53;1.98;;;1.02;;
62353;SDS011;48391;49.184;2.418;2023-05-24T09:52:20;2.38;;;1.00;;
62353;SDS011;48391;49.184;2.418;2023-05-24T09:54:46;3.90;;;1.73;;
62353;SDS011;48391;49.184;2.418;2023-05-24T09:57:15;3.88;;;1.55;;
62353;SDS011;48391;49.184;2.418;2023-05-24T09:59:41;2.92;;;0.80;;
62353;SDS011;48391;49.184;2.418;2023-05-24T10:02:08;2.25;;;0.50;;
62353;SDS011;48391;49.184;2.418;2023-05-24T10:04:35;3.38;;;1.10;;
62353;SDS011;48391;49.184;2.418;2023-05-24T10:07:02;4.60;;;1.17;;
62353;SDS011;48391;49.184;2.418;2023-05-24T10:09:28;2.33;;;0.93;;
62353;SDS011;48391;49.184;2.418;2023-05-24T10:12:00;1.02;;;0.50;;
62353;SDS011;48391;49.184;2.418;2023-05-24T10:14:29;3.70;;;0.85;;
62353;SDS011;48391;49.184;2.418;2023-05-24T10:16:56;3.78;;;1.27;;
62353;SDS011;48391;49.184;2.418;2023-05-24T10:19:22;1.38;;;0.60;;
62353;SDS011;48391;49.184;2.418;2023-05-24T10:21:49;3.85;;;1.23;;
62353;SDS011;48391;49.184;2.418;2023-05-24T10:24:15;1.33;;;0.75;;
62353;SDS011;48391;49.184;2.418;2023-05-24T10:26:43;2.90;;;0.90;;
62353;SDS011;48391;49.184;2.418;2023-05-24T10:29:23;1.77;;;0.75;;
62353;SDS011;48391;49.184;2.418;2023-05-24T10:31:52;1.30;;;0.68;;
62353;SDS011;48391;49.184;2.418;2023-05-24T10:34:19;1.48;;;0.60;;
62353;SDS011;48391;49.184;2.418;2023-05-24T10:36:45;2.80;;;0.80;;
62353;SDS011;48391;49.184;2.418;2023-05-24T10:39:12;3.55;;;0.93;;
62353;SDS011;48391;49.184;2.418;2023-05-24T10:41:39;1.65;;;0.63;;
62353;SDS011;48391;49.184;2.418;2023-05-24T10:44:11;1.05;;;0.40;;
62353;SDS011;48391;49.184;2.418;2023-05-24T10:49:22;1.90;;;1.33;;
62353;SDS011;48391;49.184;2.418;2023-05-24T10:51:48;1.63;;;0.70;;
62353;SDS011;48391;49.184;2.418;2023-05-24T10:54:15;1.83;;;0.90;;
62353;SDS011;48391;49.184;2.418;2023-05-24T10:56:45;1.00;;;0.80;;
62353;SDS011;48391;49.184;2.418;2023-05-24T10:59:28;2.10;;;1.40;;
62353;SDS011;48391;49.184;2.418;2023-05-24T11:01:55;2.22;;;1.10;;
62353;SDS011;48391;49.184;2.418;2023-05-24T11:04:22;0.90;;;0.80;;
62353;SDS011;48391;49.184;2.418;2023-05-24T11:06:49;1.02;;;0.60;;
62353;SDS011;48391;49.184;2.418;2023-05-24T11:09:19;0.98;;;0.38;;
62353;SDS011;48391;49.184;2.418;2023-05-24T11:11:46;0.65;;;0.55;;
62353;SDS011;48391;49.184;2.418;2023-05-24T11:14:16;2.90;;;1.50;;
62353;SDS011;48391;49.184;2.418;2023-05-24T11:16:47;2.05;;;0.80;;
62353;SDS011;48391;49.184;2.418;2023-05-24T11:21:40;3.47;;;1.77;;
62353;SDS011;48391;49.184;2.418;2023-05-24T11:24:08;1.08;;;0.50;;
62353;SDS011;48391;49.184;2.418;2023-05-24T11:26:34;1.58;;;1.00;;
62353;SDS011;48391;49.184;2.418;2023-05-24T11:29:01;0.70;;;0.35;;
62353;SDS011;48391;49.184;2.418;2023-05-24T11:31:29;0.82;;;0.50;;
62353;SDS011;48391;49.184;2.418;2023-05-24T11:33:56;3.15;;;0.85;;
62353;SDS011;48391;49.184;2.418;2023-05-24T11:36:22;2.75;;;0.77;;
62353;SDS011;48391;49.184;2.418;2023-05-24T11:38:49;12.23;;;0.80;;
62353;SDS011;48391;49.184;2.418;2023-05-24T11:41:16;1.58;;;1.15;;
62353;SDS011;48391;49.184;2.418;2023-05-24T11:43:43;1.15;;;0.55;;
62353;SDS011;48391;49.184;2.418;2023-05-24T11:46:09;2.33;;;0.88;;
62353;SDS011;48391;49.184;2.418;2023-05-24T11:48:35;2.60;;;1.08;;
62353;SDS011;48391;49.184;2.418;2023-05-24T11:51:01;3.20;;;0.95;;
62353;SDS011;48391;49.184;2.418;2023-05-24T11:53:30;1.58;;;0.93;;
62353;SDS011;48391;49.184;2.418;2023-05-24T11:55:56;4.03;;;1.35;;
62353;SDS011;48391;49.184;2.418;2023-05-24T11:58:23;5.63;;;1.52;;
62353;SDS011;48391;49.184;2.418;2023-05-24T12:00:50;2.78;;;0.93;;
62353;SDS011;48391;49.184;2.418;2023-05-24T12:03:17;2.03;;;1.13;;
62353;SDS011;48391;49.184;2.418;2023-05-24T12:05:43;1.63;;;1.15;;
62353;SDS011;48391;49.184;2.418;2023-05-24T12:08:10;2.42;;;0.70;;
62353;SDS011;48391;49.184;2.418;2023-05-24T12:10:37;5.55;;;1.35;;
62353;SDS011;48391;49.184;2.418;2023-05-24T12:13:04;5.35;;;1.58;;
62353;SDS011;48391;49.184;2.418;2023-05-24T12:15:31;2.50;;;1.17;;
62353;SDS011;48391;49.184;2.418;2023-05-24T12:17:57;1.65;;;0.82;;
62353;SDS011;48391;49.184;2.418;2023-05-24T12:20:26;1.20;;;0.75;;
62353;SDS011;48391;49.184;2.418;2023-05-24T12:22:53;1.35;;;0.80;;
62353;SDS011;48391;49.184;2.418;2023-05-24T12:25:19;3.22;;;1.05;;
62353;SDS011;48391;49.184;2.418;2023-05-24T12:27:46;0.82;;;0.50;;
62353;SDS011;48391;49.184;2.418;2023-05-24T12:30:15;1.10;;;0.73;;
62353;SDS011;48391;49.184;2.418;2023-05-24T12:32:48;1.65;;;1.15;;
62353;SDS011;48391;49.184;2.418;2023-05-24T12:35:17;1.33;;;0.60;;
62353;SDS011;48391;49.184;2.418;2023-05-24T12:37:44;0.85;;;0.60;;
62353;SDS011;48391;49.184;2.418;2023-05-24T12:40:17;1.27;;;0.60;;
62353;SDS011;48391;49.184;2.418;2023-05-24T12:42:54;1.30;;;1.00;;
62353;SDS011;48391;49.184;2.418;2023-05-24T12:45:24;0.80;;;0.65;;
62353;SDS011;48391;49.184;2.418;2023-05-24T12:47:51;2.08;;;0.98;;
62353;SDS011;48391;49.184;2.418;2023-05-24T12:50:18;1.05;;;0.80;;
62353;SDS011;48391;49.184;2.418;2023-05-24T12:52:45;1.13;;;1.02;;
62353;SDS011;48391;49.184;2.418;2023-05-24T12:55:14;1.05;;;0.88;;
62353;SDS011;48391;49.184;2.418;2023-05-24T12:57:41;0.98;;;0.47;;
62353;SDS011;48391;49.184;2.418;2023-05-24T13:00:08;1.65;;;0.88;;
62353;SDS011;48391;49.184;2.418;2023-05-24T13:02:35;0.65;;;0.65;;
62353;SDS011;48391;49.184;2.418;2023-05-24T13:05:01;1.25;;;1.00;;
62353;SDS011;48391;49.184;2.418;2023-05-24T13:07:28;1.05;;;0.82;;
62353;SDS011;48391;49.184;2.418;2023-05-24T13:09:54;2.10;;;1.00;;
62353;SDS011;48391;49.184;2.418;2023-05-24T13:12:24;1.05;;;1.05;;
62353;SDS011;48391;49.184;2.418;2023-05-24T13:14:53;1.50;;;0.85;;
62353;SDS011;48391;49.184;2.418;2023-05-24T13:17:19;1.17;;;1.08;;
62353;SDS011;48391;49.184;2.418;2023-05-24T13:19:45;1.70;;;0.95;;
62353;SDS011;48391;49.184;2.418;2023-05-24T13:22:12;1.98;;;1.13;;
62353;SDS011;48391;49.184;2.418;2023-05-24T13:24:44;2.00;;;0.52;;
62353;SDS011;48391;49.184;2.418;2023-05-24T13:27:10;1.20;;;0.80;;
62353;SDS011;48391;49.184;2.418;2023-05-24T13:29:37;1.40;;;1.25;;
62353;SDS011;48391;49.184;2.418;2023-05-24T13:32:03;2.13;;;1.10;;
62353;SDS011;48391;49.184;2.418;2023-05-24T13:34:29;0.52;;;0.47;;
62353;SDS011;48391;49.184;2.418;2023-05-24T13:36:57;0.60;;;0.50;;
62353;SDS011;48391;49.184;2.418;2023-05-24T13:39:24;0.88;;;0.60;;
62353;SDS011;48391;49.184;2.418;2023-05-24T13:41:51;1.70;;;1.02;;
62353;SDS011;48391;49.184;2.418;2023-05-24T13:44:18;0.68;;;0.55;;
62353;SDS011;48391;49.184;2.418;2023-05-24T13:46:44;2.47;;;0.88;;
62353;SDS011;48391;49.184;2.418;2023-05-24T13:49:11;1.20;;;0.75;;
62353;SDS011;48391;49.184;2.418;2023-05-24T13:51:37;1.48;;;0.90;;
62353;SDS011;48391;49.184;2.418;2023-05-24T13:54:04;1.88;;;1.13;;
62353;SDS011;48391;49.184;2.418;2023-05-24T13:56:31;2.67;;;1.70;;
62353;SDS011;48391;49.184;2.418;2023-05-24T13:59:01;0.60;;;0.55;;
62353;SDS011;48391;49.184;2.418;2023-05-24T14:01:27;1.53;;;1.20;;
62353;SDS011;48391;49.184;2.418;2023-05-24T14:03:54;2.35;;;1.58;;
62353;SDS011;48391;49.184;2.418;2023-05-24T14:06:20;2.95;;;1.05;;
62353;SDS011;48391;49.184;2.418;2023-05-24T14:08:47;1.88;;;1.33;;
62353;SDS011;48391;49.184;2.418;2023-05-24T14:11:13;1.15;;;0.73;;
62353;SDS011;48391;49.184;2.418;2023-05-24T14:13:40;2.83;;;1.63;;
62353;SDS011;48391;49.184;2.418;2023-05-24T14:16:06;2.53;;;1.23;;
62353;SDS011;48391;49.184;2.418;2023-05-24T14:18:33;2.83;;;1.60;;
62353;SDS011;48391;49.184;2.418;2023-05-24T14:20:59;2.95;;;2.35;;
62353;SDS011;48391;49.184;2.418;2023-05-24T14:23:25;3.05;;;1.05;;
62353;SDS011;48391;49.184;2.418;2023-05-24T14:25:51;1.30;;;1.20;;
62353;SDS011;48391;49.184;2.418;2023-05-24T14:28:18;1.27;;;0.82;;
62353;SDS011;48391;49.184;2.418;2023-05-24T14:30:44;1.55;;;1.17;;
62353;SDS011;48391;49.184;2.418;2023-05-24T14:33:10;1.85;;;1.23;;
62353;SDS011;48391;49.184;2.418;2023-05-24T14:35:36;1.48;;;0.98;;
62353;SDS011;48391;49.184;2.418;2023-05-24T14:38:07;4.57;;;1.55;;
62353;SDS011;48391;49.184;2.418;2023-05-24T14:40:33;2.90;;;1.83;;
62353;SDS011;48391;49.184;2.418;2023-05-24T14:43:01;4.43;;;1.23;;
62353;SDS011;48391;49.184;2.418;2023-05-24T14:45:27;2.08;;;1.50;;
62353;SDS011;48391;49.184;2.418;2023-05-24T14:47:53;1.80;;;1.25;;
62353;SDS011;48391;49.184;2.418;2023-05-24T14:50:19;1.48;;;1.25;;
62353;SDS011;48391;49.184;2.418;2023-05-24T14:52:45;1.70;;;1.05;;
62353;SDS011;48391;49.184;2.418;2023-05-24T14:55:11;2.22;;;1.63;;
62353;SDS011;48391;49.184;2.418;2023-05-24T14:57:38;1.17;;;1.08;;
62353;SDS011;48391;49.184;2.418;2023-05-24T15:00:05;2.40;;;1.75;;
62353;SDS011;48391;49.184;2.418;2023-05-24T15:02:32;3.03;;;1.85;;
62353;SDS011;48391;49.184;2.418;2023-05-24T15:05:01;8.25;;;2.17;;
62353;SDS011;48391;49.184;2.418;2023-05-24T15:07:27;5.88;;;2.78;;